createdAt,value
2018-02-19T00:01:54.084Z,97513.03
2018-02-19T00:04:21.548Z,97511.80
2018-02-19T00:06:49.039Z,97510.22
2018-02-19T00:09:16.810Z,97505.11
2018-02-19T00:11:44.323Z,97504.34
2018-02-19T00:14:11.829Z,97508.51
2018-02-19T00:16:39.733Z,97513.48
2018-02-19T00:19:07.353Z,97504.58
2018-02-19T00:21:35.075Z,97509.16
2018-02-19T00:24:02.543Z,97509.86
2018-02-19T00:26:30.014Z,97503.65
2018-02-19T00:28:57.503Z,97501.86
2018-02-19T00:31:25.087Z,97505.02
2018-02-19T00:33:52.730Z,97496.81
2018-02-19T00:36:20.274Z,97497.58
2018-02-19T00:38:47.728Z,97495.83
2018-02-19T00:41:15.193Z,97491.30
2018-02-19T00:43:42.701Z,97493.79
2018-02-19T00:46:10.218Z,97491.80
2018-02-19T00:48:37.773Z,97497.05
2018-02-19T00:51:05.241Z,97493.65
2018-02-19T00:53:32.697Z,97491.66
2018-02-19T00:56:00.166Z,97487.63
2018-02-19T00:58:27.649Z,97486.33
2018-02-19T01:00:55.148Z,97478.51
2018-02-19T01:03:22.626Z,97486.64
2018-02-19T01:05:50.129Z,97480.27
2018-02-19T01:08:17.665Z,97481.62
2018-02-19T01:10:45.114Z,97475.14
2018-02-19T01:13:12.606Z,97475.25
2018-02-19T01:15:40.105Z,97474.73
2018-02-19T01:18:07.969Z,97481.17
2018-02-19T01:20:35.601Z,97472.41
2018-02-19T01:23:03.032Z,97470.55
2018-02-19T01:25:30.502Z,97470.59
2018-02-19T01:27:57.993Z,97471.85
2018-02-19T01:30:25.450Z,97469.98
2018-02-19T01:32:52.971Z,97461.33
2018-02-19T01:35:20.439Z,97460.84
2018-02-19T01:37:47.906Z,97454.67
2018-02-19T01:40:15.366Z,97450.70
2018-02-19T01:42:42.878Z,97452.27
2018-02-19T01:45:10.814Z,97455.11
2018-02-19T01:47:38.397Z,97451.52
2018-02-19T01:50:15.763Z,97454.99
2018-02-19T01:52:43.290Z,97452.05
2018-02-19T01:55:10.863Z,97449.38
2018-02-19T01:57:38.331Z,97444.30
2018-02-19T02:00:05.789Z,97446.59
2018-02-19T02:02:33.303Z,97444.03
2018-02-19T02:05:00.820Z,97437.02
2018-02-19T02:07:28.332Z,97435.91
2018-02-19T02:09:55.847Z,97441.03
2018-02-19T02:12:23.363Z,97437.13
2018-02-19T02:14:50.886Z,97441.03
2018-02-19T02:17:18.393Z,97434.81
2018-02-19T02:19:45.873Z,97439.12
2018-02-19T02:22:13.366Z,97439.31
2018-02-19T02:24:40.863Z,97433.39
2018-02-19T02:27:08.527Z,97432.36
2018-02-19T02:29:36.023Z,97423.31
2018-02-19T02:32:03.549Z,97427.13
2018-02-19T02:34:31.031Z,97427.78
2018-02-19T02:36:58.428Z,97431.33
2018-02-19T02:39:25.923Z,97426.03
2018-02-19T02:41:53.423Z,97428.17
2018-02-19T02:44:20.871Z,97421.11
2018-02-19T02:46:48.428Z,97419.43
2018-02-19T02:49:15.868Z,97416.98
2018-02-19T02:51:43.326Z,97411.56
2018-02-19T02:54:10.783Z,97408.81
2018-02-19T02:56:38.284Z,97417.98
2018-02-19T02:59:05.751Z,97413.97
2018-02-19T03:01:33.243Z,97413.52
2018-02-19T03:04:00.716Z,97419.23
2018-02-19T03:06:28.186Z,97416.53
2018-02-19T03:08:55.694Z,97416.42
2018-02-19T03:11:23.179Z,97422.67
2018-02-19T03:13:50.647Z,97416.45
2018-02-19T03:16:18.145Z,97417.72
2018-02-19T03:18:45.620Z,97419.59
2018-02-19T03:21:13.065Z,97413.97
2018-02-19T03:23:40.528Z,97414.84
2018-02-19T03:26:07.994Z,97415.54
2018-02-19T03:28:35.994Z,97410.05
2018-02-19T03:31:03.555Z,97415.84
2018-02-19T03:33:31.026Z,97411.98
2018-02-19T03:35:58.500Z,97412.98
2018-02-19T03:38:25.891Z,97411.61
2018-02-19T03:40:53.436Z,97410.05
2018-02-19T03:43:20.932Z,97408.91
2018-02-19T03:45:48.352Z,97408.44
2018-02-19T03:48:15.851Z,97404.25
2018-02-19T03:50:43.588Z,97408.75
2018-02-19T03:53:11.463Z,97410.54
2018-02-19T03:55:38.982Z,97402.76
2018-02-19T03:58:06.439Z,97396.42
2018-02-19T04:00:33.972Z,97396.16
2018-02-19T04:03:01.958Z,97396.61
2018-02-19T04:05:29.499Z,97394.44
2018-02-19T04:07:57.075Z,97408.17
2018-02-19T04:10:24.568Z,97397.88
2018-02-19T04:12:51.995Z,97395.84
2018-02-19T04:15:19.518Z,97388.75
2018-02-19T04:17:47.097Z,97392.83
2018-02-19T04:20:14.619Z,97387.41
2018-02-19T04:22:42.130Z,97390.09
2018-02-19T04:25:09.531Z,97384.09
2018-02-19T04:27:37.072Z,97380.52
2018-02-19T04:30:04.579Z,97377.73
2018-02-19T04:32:32.086Z,97382.16
2018-02-19T04:34:59.610Z,97382.53
2018-02-19T04:37:27.192Z,97380.94
2018-02-19T04:39:54.659Z,97384.02
2018-02-19T04:42:22.132Z,97382.08
2018-02-19T04:45:08.459Z,97383.30
2018-02-19T04:47:35.987Z,97382.92
2018-02-19T04:50:03.511Z,97378.64
2018-02-19T04:52:31.017Z,97377.84
2018-02-19T04:54:58.544Z,97372.96
2018-02-19T04:57:25.996Z,97369.48
2018-02-19T04:59:53.458Z,97373.84
2018-02-19T05:02:20.915Z,97374.64
2018-02-19T05:04:48.389Z,97378.19
2018-02-19T05:07:15.892Z,97376.92
2018-02-19T05:09:43.432Z,97373.00
2018-02-19T05:12:10.905Z,97370.14
2018-02-19T05:14:38.410Z,97368.34
2018-02-19T05:17:05.898Z,97369.98
2018-02-19T05:19:33.692Z,97366.09
2018-02-19T05:22:01.246Z,97369.03
2018-02-19T05:24:29.140Z,97365.25
2018-02-19T05:26:56.669Z,97369.52
2018-02-19T05:29:24.185Z,97364.41
2018-02-19T05:31:51.784Z,97362.31
2018-02-19T05:34:19.511Z,97357.66
2018-02-19T05:36:47.090Z,97360.75
2018-02-19T05:39:14.535Z,97363.92
2018-02-19T05:41:42.029Z,97362.58
2018-02-19T05:44:09.551Z,97353.84
2018-02-19T05:46:37.030Z,97357.70
2018-02-19T05:49:04.448Z,97354.77
2018-02-19T05:51:31.951Z,97357.09
2018-02-19T05:53:59.594Z,97349.30
2018-02-19T05:56:27.077Z,97353.06
2018-02-19T05:58:54.589Z,97355.20
2018-02-19T06:01:22.134Z,97361.88
2018-02-19T06:03:49.641Z,97361.22
2018-02-19T06:06:17.144Z,97361.30
2018-02-19T06:08:44.642Z,97357.25
2018-02-19T06:11:12.141Z,97358.38
2018-02-19T06:13:39.648Z,97366.72
2018-02-19T06:16:07.284Z,97360.53
2018-02-19T06:21:08.600Z,97367.72
2018-02-19T06:23:36.098Z,97368.27
2018-02-19T06:26:03.500Z,97371.58
2018-02-19T06:28:30.950Z,97369.56
2018-02-19T06:30:58.427Z,97361.02
2018-02-19T06:33:25.953Z,97370.76
2018-02-19T06:35:53.529Z,97363.47
2018-02-19T06:38:21.078Z,97365.73
2018-02-19T06:40:48.720Z,97366.23
2018-02-19T06:43:21.253Z,97363.55
2018-02-19T06:45:49.931Z,97366.34
2018-02-19T06:48:17.456Z,97360.20
2018-02-19T06:50:44.939Z,97362.09
2018-02-19T06:53:12.490Z,97364.48
2018-02-19T06:55:40.019Z,97358.72
2018-02-19T06:58:07.538Z,97355.78
2018-02-19T07:00:35.050Z,97361.52
2018-02-19T07:03:02.650Z,97356.41
2018-02-19T07:05:30.160Z,97360.20
2018-02-19T07:07:57.662Z,97360.58
2018-02-19T07:10:25.095Z,97365.47
2018-02-19T07:12:52.550Z,97364.51
2018-02-19T07:15:20.091Z,97369.09
2018-02-19T07:17:47.608Z,97365.53
2018-02-19T07:20:15.366Z,97360.97
2018-02-19T07:22:42.896Z,97361.66
2018-02-19T07:25:10.417Z,97361.91
2018-02-19T07:27:37.908Z,97360.07
2018-02-19T07:30:05.393Z,97357.55
2018-02-19T07:32:33.304Z,97359.94
2018-02-19T07:35:00.786Z,97362.16
2018-02-19T07:37:28.266Z,97356.92
2018-02-19T07:39:55.774Z,97355.42
2018-02-19T07:42:23.249Z,97357.17
2018-02-19T07:44:50.726Z,97359.61
2018-02-19T07:47:18.204Z,97364.17
2018-02-19T07:49:45.723Z,97361.20
2018-02-19T07:52:13.190Z,97364.55
2018-02-19T07:54:40.747Z,97361.08
2018-02-19T07:57:08.262Z,97357.73
2018-02-19T07:59:35.823Z,97359.11
2018-02-19T08:02:03.295Z,97365.02
2018-02-19T08:04:30.772Z,97363.30
2018-02-19T08:06:58.259Z,97358.70
2018-02-19T08:09:25.866Z,97363.55
2018-02-19T08:11:53.369Z,97362.75
2018-02-19T08:16:54.510Z,97365.06
2018-02-19T08:19:21.971Z,97362.13
2018-02-19T08:21:50.463Z,97360.73
2018-02-19T08:24:18.111Z,97358.48
2018-02-19T08:26:45.658Z,97360.95
2018-02-19T08:29:13.106Z,97356.33
2018-02-19T08:31:40.683Z,97348.72
2018-02-19T08:34:08.171Z,97348.89
2018-02-19T08:36:35.727Z,97340.77
2018-02-19T08:39:03.271Z,97344.91
2018-02-19T08:41:30.808Z,97349.27
2018-02-19T08:43:58.878Z,97349.05
2018-02-19T08:46:26.383Z,97346.63
2018-02-19T08:48:53.831Z,97349.05
2018-02-19T08:51:21.395Z,97347.34
2018-02-19T08:53:48.916Z,97344.57
2018-02-19T08:56:16.413Z,97339.80
2018-02-19T08:58:43.910Z,97343.73
2018-02-19T09:01:11.503Z,97340.02
2018-02-19T09:03:39.028Z,97337.92
2018-02-19T09:06:06.666Z,97342.73
2018-02-19T09:08:34.187Z,97344.57
2018-02-19T09:11:01.854Z,97340.30
2018-02-19T09:13:29.386Z,97345.33
2018-02-19T09:15:56.788Z,97339.07
2018-02-19T09:18:24.277Z,97339.03
2018-02-19T09:20:51.683Z,97335.38
2018-02-19T09:23:19.193Z,97340.83
2018-02-19T09:25:46.885Z,97342.38
2018-02-19T09:28:14.414Z,97333.80
2018-02-19T09:30:41.898Z,97330.42
2018-02-19T09:33:09.410Z,97328.33
2018-02-19T09:35:36.941Z,97326.30
2018-02-19T09:38:04.462Z,97331.78
2018-02-19T09:40:31.943Z,97330.89
2018-02-19T09:42:59.460Z,97324.58
2018-02-19T09:45:26.939Z,97320.16
2018-02-19T09:47:55.143Z,97328.59
2018-02-19T09:50:22.613Z,97321.70
2018-02-19T09:52:50.155Z,97323.61
2018-02-19T09:55:17.715Z,97321.19
2018-02-19T09:57:45.179Z,97331.08
2018-02-19T10:00:12.699Z,97324.59
2018-02-19T10:02:40.562Z,97327.09
2018-02-19T10:05:08.123Z,97323.05
2018-02-19T10:07:35.679Z,97321.80
2018-02-19T10:10:03.693Z,97329.02
2018-02-19T10:12:31.227Z,97315.69
2018-02-19T10:14:59.574Z,97315.91
2018-02-19T10:17:27.037Z,97320.34
2018-02-19T10:19:54.576Z,97315.70
2018-02-19T10:22:22.170Z,97317.59
2018-02-19T10:24:49.825Z,97322.53
2018-02-19T10:27:17.376Z,97309.20
2018-02-19T10:29:45.206Z,97306.41
2018-02-19T10:32:12.670Z,97307.06
2018-02-19T10:34:41.176Z,97303.21
2018-02-19T10:37:08.686Z,97304.50
2018-02-19T10:39:36.221Z,97300.39
2018-02-19T10:42:03.674Z,97305.11
2018-02-19T10:44:31.192Z,97308.80
2018-02-19T10:46:58.692Z,97300.55
2018-02-19T10:49:26.094Z,97307.12
2018-02-19T10:51:53.893Z,97298.13
2018-02-19T10:54:21.414Z,97292.43
2018-02-19T10:56:48.918Z,97289.67
2018-02-19T10:59:16.666Z,97292.48
2018-02-19T11:01:44.184Z,97279.81
2018-02-19T11:04:11.761Z,97276.88
2018-02-19T11:06:39.266Z,97279.77
2018-02-19T11:09:07.740Z,97277.41
2018-02-19T11:11:35.315Z,97278.52
2018-02-19T11:14:03.984Z,97268.17
2018-02-19T11:16:31.497Z,97267.77
2018-02-19T11:18:59.001Z,97269.27
2018-02-19T11:21:26.507Z,97265.63
2018-02-19T11:23:54.004Z,97260.72
2018-02-19T11:26:21.581Z,97260.88
2018-02-19T11:28:49.211Z,97256.92
2018-02-19T11:31:16.755Z,97259.95
2018-02-19T11:33:44.420Z,97247.30
2018-02-19T11:36:12.014Z,97251.50
2018-02-19T11:38:39.452Z,97248.73
2018-02-19T11:41:07.313Z,97246.02
2018-02-19T11:43:34.820Z,97246.66
2018-02-19T11:46:02.446Z,97242.17
2018-02-19T11:48:30.035Z,97231.15
2018-02-19T11:50:57.623Z,97231.95
2018-02-19T11:53:25.702Z,97227.70
2018-02-19T11:55:53.403Z,97233.05
2018-02-19T11:58:20.924Z,97221.81
2018-02-19T12:00:48.614Z,97217.95
2018-02-19T12:03:16.144Z,97215.02
2018-02-19T12:05:43.714Z,97208.83
2018-02-19T12:08:11.267Z,97198.27
2018-02-19T12:10:38.756Z,97197.74
2018-02-19T12:13:06.310Z,97187.22
2018-02-19T12:15:33.912Z,97182.11
2018-02-19T12:18:01.425Z,97184.60
2018-02-19T12:20:28.941Z,97179.42
2018-02-19T12:22:56.426Z,97182.37
2018-02-19T12:25:24.827Z,97180.41
2018-02-19T12:27:52.273Z,97183.45
2018-02-19T12:30:19.798Z,97184.08
2018-02-19T12:32:47.352Z,97182.30
2018-02-19T12:35:14.760Z,97183.50
2018-02-19T12:37:42.429Z,97185.30
2018-02-19T12:40:09.978Z,97183.03
2018-02-19T12:42:37.450Z,97167.83
2018-02-19T12:45:05.045Z,97167.48
2018-02-19T12:47:32.516Z,97158.84
2018-02-19T12:49:59.993Z,97159.11
2018-02-19T12:52:27.549Z,97164.38
2018-02-19T12:54:55.058Z,97153.64
2018-02-19T12:57:22.635Z,97144.77
2018-02-19T12:59:50.171Z,97144.26
2018-02-19T13:02:17.663Z,97141.78
2018-02-19T13:04:45.174Z,97142.08
2018-02-19T13:07:12.700Z,97142.73
2018-02-19T13:09:40.265Z,97127.70
2018-02-19T13:12:07.749Z,97131.44
2018-02-19T13:14:35.268Z,97122.50
2018-02-19T13:17:02.832Z,97107.72
2018-02-19T13:19:30.393Z,97104.89
2018-02-19T13:21:57.967Z,97105.14
2018-02-19T13:24:25.458Z,97100.51
2018-02-19T13:26:52.924Z,97106.52
2018-02-19T13:29:20.430Z,97101.89
2018-02-19T13:31:47.977Z,97094.73
2018-02-19T13:34:16.042Z,97084.13
2018-02-19T13:36:43.515Z,97090.58
2018-02-19T13:39:11.058Z,97078.95
2018-02-19T13:41:38.579Z,97082.39
2018-02-19T13:44:06.100Z,97081.36
2018-02-19T13:46:33.595Z,97074.16
2018-02-19T13:49:01.184Z,97079.50
2018-02-19T13:51:28.617Z,97067.38
2018-02-19T13:53:56.433Z,97070.42
2018-02-19T13:56:24.347Z,97070.69
2018-02-19T13:58:51.905Z,97069.50
2018-02-19T14:01:19.456Z,97062.32
2018-02-19T14:03:46.950Z,97056.93
2018-02-19T14:06:14.639Z,97051.70
2018-02-19T14:08:42.164Z,97056.60
2018-02-19T14:11:09.650Z,97052.25
2018-02-19T14:13:37.166Z,97057.09
2018-02-19T14:16:04.698Z,97057.95
2018-02-19T14:18:32.323Z,97065.72
2018-02-19T14:20:59.899Z,97058.14
2018-02-19T14:23:27.292Z,97051.33
2018-02-19T14:25:54.757Z,97054.64
2018-02-19T14:28:22.439Z,97056.23
2018-02-19T14:30:50.511Z,97063.64
2018-02-19T14:33:17.987Z,97059.63
2018-02-19T14:35:45.503Z,97062.85
2018-02-19T14:38:12.984Z,97051.23
2018-02-19T14:40:40.371Z,97048.51
2018-02-19T14:43:07.927Z,97044.23
2018-02-19T14:45:35.388Z,97035.31
2018-02-19T14:48:02.977Z,97036.42
2018-02-19T14:50:30.405Z,97021.33
2018-02-19T14:52:58.063Z,97022.48
2018-02-19T14:55:25.616Z,97020.54
2018-02-19T14:57:53.199Z,97009.24
2018-02-19T15:00:20.700Z,97012.94
2018-02-19T15:02:48.223Z,97005.81
2018-02-19T15:05:15.801Z,97009.02
2018-02-19T15:07:43.206Z,97010.47
2018-02-19T15:10:10.739Z,97022.67
2018-02-19T15:12:38.212Z,97025.43
2018-02-19T15:15:05.740Z,97025.09
2018-02-19T15:17:33.305Z,97022.69
2018-02-19T15:20:00.885Z,97020.42
2018-02-19T15:22:28.362Z,97023.92
2018-02-19T15:24:55.883Z,97018.56
2018-02-19T15:27:23.331Z,97017.84
2018-02-19T15:29:50.990Z,97019.05
2018-02-19T15:32:18.558Z,97018.16
2018-02-19T15:34:46.073Z,97018.03
2018-02-19T15:37:13.573Z,97015.28
2018-02-19T15:39:41.298Z,97013.50
2018-02-19T15:42:08.795Z,97011.60
2018-02-19T15:44:36.258Z,97015.53
2018-02-19T15:47:03.752Z,97005.81
2018-02-19T15:49:31.204Z,97008.64
2018-02-19T15:51:58.711Z,97016.25
2018-02-19T15:54:26.692Z,97001.25
2018-02-19T15:56:54.285Z,96999.16
2018-02-19T15:59:21.757Z,97001.06
2018-02-19T16:01:49.428Z,96997.20
2018-02-19T16:04:16.913Z,96997.22
2018-02-19T16:06:44.374Z,97002.58
2018-02-19T16:09:12.141Z,96999.89
2018-02-19T16:11:39.599Z,96998.30
2018-02-19T16:14:07.103Z,96999.09
2018-02-19T16:16:34.598Z,96992.80
2018-02-19T16:19:02.119Z,96993.17
2018-02-19T16:21:29.673Z,96997.83
2018-02-19T16:23:57.162Z,97004.85
2018-02-19T16:26:24.739Z,97007.02
2018-02-19T16:28:52.287Z,97011.29
2018-02-19T16:31:19.792Z,97010.67
2018-02-19T16:33:47.315Z,97008.51
2018-02-19T16:36:14.922Z,97002.91
2018-02-19T16:38:42.441Z,97002.42
2018-02-19T16:41:09.905Z,96996.27
2018-02-19T16:43:37.361Z,96991.37
2018-02-19T16:46:05.677Z,96983.58
2018-02-19T16:48:33.272Z,96988.05
2018-02-19T16:51:00.875Z,96983.97
2018-02-19T16:53:28.515Z,96988.45
2018-02-19T16:55:55.928Z,96981.36
2018-02-19T16:58:23.430Z,96983.97
2018-02-19T17:00:50.963Z,96993.06
2018-02-19T17:03:18.446Z,96987.53
2018-02-19T17:05:46.038Z,96985.11
2018-02-19T17:08:13.463Z,96990.69
2018-02-19T17:10:41.790Z,96994.97
2018-02-19T17:13:09.343Z,96989.27
2018-02-19T17:15:36.910Z,96996.28
2018-02-19T17:18:04.419Z,97000.91
2018-02-19T17:20:31.958Z,97004.66
2018-02-19T17:22:59.418Z,97004.23
2018-02-19T17:25:26.937Z,97003.98
2018-02-19T17:27:54.384Z,97006.73
2018-02-19T17:30:21.844Z,97004.12
2018-02-19T17:32:49.363Z,96998.91
2018-02-19T17:35:16.945Z,96991.84
2018-02-19T17:37:44.488Z,96992.44
2018-02-19T17:40:11.989Z,97002.23
2018-02-19T17:42:39.429Z,97011.45
2018-02-19T17:45:06.948Z,97009.50
2018-02-19T17:47:34.404Z,97018.02
2018-02-19T17:50:01.898Z,97024.99
2018-02-19T17:52:29.432Z,97026.36
2018-02-19T17:54:56.900Z,97024.88
2018-02-19T17:57:24.387Z,97023.92
2018-02-19T17:59:51.899Z,97017.73
2018-02-19T18:02:19.439Z,97020.85
2018-02-19T18:04:47.130Z,97023.59
2018-02-19T18:07:14.711Z,97014.75
2018-02-19T18:09:42.439Z,97021.80
2018-02-19T18:12:10.361Z,97021.01
2018-02-19T18:14:37.838Z,97015.03
2018-02-19T18:17:05.293Z,97018.72
2018-02-19T18:19:32.808Z,97019.36
2018-02-19T18:22:00.321Z,97009.70
2018-02-19T18:24:27.886Z,97012.21
2018-02-19T18:26:55.518Z,97007.70
2018-02-19T18:29:23.210Z,97016.33
2018-02-19T18:31:50.725Z,97008.33
2018-02-19T18:34:18.256Z,97002.64
2018-02-19T18:36:45.798Z,97002.29
2018-02-19T18:39:13.398Z,97005.72
2018-02-19T18:41:40.865Z,97007.88
2018-02-19T18:44:08.415Z,97003.88
2018-02-19T18:46:35.928Z,97010.77
2018-02-19T18:49:03.382Z,97008.33
2018-02-19T18:51:30.907Z,97007.15
2018-02-19T18:53:58.456Z,97009.23
2018-02-19T18:56:26.697Z,97007.41
2018-02-19T18:58:54.491Z,97016.88
2018-02-19T19:01:22.002Z,97013.28
2018-02-19T19:03:49.668Z,97011.12
2018-02-19T19:06:17.172Z,97011.63
2018-02-19T19:08:56.541Z,97013.03
2018-02-19T19:11:24.075Z,97011.89
2018-02-19T19:13:51.620Z,97013.80
2018-02-19T19:16:19.292Z,97013.72
2018-02-19T19:18:46.836Z,97009.34
2018-02-19T19:21:14.331Z,97016.20
2018-02-19T19:23:42.045Z,97007.66
2018-02-19T19:26:09.692Z,97016.00
2018-02-19T19:28:37.244Z,97012.31
2018-02-19T19:31:04.920Z,97007.56
2018-02-19T19:33:32.546Z,97009.07
2018-02-19T19:36:00.060Z,97013.09
2018-02-19T19:38:27.637Z,97012.72
2018-02-19T19:40:55.164Z,97008.20
2018-02-19T19:43:22.821Z,97006.48
2018-02-19T19:45:50.274Z,97008.40
2018-02-19T19:48:17.892Z,97003.62
2018-02-19T19:50:45.650Z,96998.83
2018-02-19T19:53:13.125Z,96998.31
2018-02-19T19:55:40.646Z,96996.23
2018-02-19T19:58:08.163Z,97001.75
2018-02-19T20:00:35.853Z,97003.34
2018-02-19T20:03:03.415Z,96994.83
2018-02-19T20:05:30.877Z,96997.53
2018-02-19T20:07:58.346Z,96992.22
2018-02-19T20:10:25.828Z,96994.34
2018-02-19T20:12:53.476Z,96990.45
2018-02-19T20:15:20.957Z,96989.67
2018-02-19T20:17:48.660Z,96986.86
2018-02-19T20:20:16.512Z,96982.38
2018-02-19T20:22:44.496Z,96979.47
2018-02-19T20:25:12.021Z,96988.68
2018-02-19T20:27:39.533Z,96986.30
2018-02-19T20:30:07.796Z,96983.47
2018-02-19T20:32:35.277Z,96982.59
2018-02-19T20:35:02.805Z,96980.66
2018-02-19T20:37:30.976Z,96987.73
2018-02-19T20:39:58.381Z,96981.83
2018-02-19T20:42:25.935Z,96974.34
2018-02-19T20:44:53.414Z,96973.80
2018-02-19T20:47:20.921Z,96972.72
2018-02-19T20:49:48.400Z,96966.63
2018-02-19T20:52:15.974Z,96970.94
2018-02-19T20:54:43.754Z,96965.91
2018-02-19T20:57:11.277Z,96970.86
2018-02-19T20:59:38.894Z,96967.73
2018-02-19T21:02:06.430Z,96963.67
2018-02-19T21:04:33.945Z,96961.66
2018-02-19T21:07:01.467Z,96963.67
2018-02-19T21:09:28.922Z,96964.76
2018-02-19T21:11:56.401Z,96969.34
2018-02-19T21:14:23.914Z,96967.69
2018-02-19T21:16:51.469Z,96962.58
2018-02-19T21:19:18.993Z,96959.47
2018-02-19T21:21:46.601Z,96962.48
2018-02-19T21:24:14.082Z,96960.45
2018-02-19T21:26:41.551Z,96959.41
2018-02-19T21:29:09.063Z,96961.97
2018-02-19T21:31:36.571Z,96956.09
2018-02-19T21:34:04.149Z,96954.84
2018-02-19T21:36:31.947Z,96950.63
2018-02-19T21:38:59.468Z,96953.08
2018-02-19T21:41:27.138Z,96945.22
2018-02-19T21:43:54.658Z,96949.54
2018-02-19T21:46:22.175Z,96954.27
2018-02-19T21:48:49.710Z,96955.72
2018-02-19T21:51:17.144Z,96946.99
2018-02-19T21:53:44.735Z,96947.40
2018-02-19T21:56:12.242Z,96949.19
2018-02-19T21:58:39.727Z,96954.13
2018-02-19T22:01:07.267Z,96945.44
2018-02-19T22:03:34.730Z,96940.29
2018-02-19T22:06:03.445Z,96941.27
2018-02-19T22:08:30.977Z,96931.81
2018-02-19T22:10:58.507Z,96928.28
2018-02-19T22:13:26.020Z,96926.66
2018-02-19T22:15:53.455Z,96926.55
2018-02-19T22:18:21.219Z,96928.50
2018-02-19T22:20:49.037Z,96919.63
2018-02-19T22:23:16.542Z,96926.42
2018-02-19T22:25:44.106Z,96923.98
2018-02-19T22:28:11.638Z,96922.79
2018-02-19T22:30:39.077Z,96926.05
2018-02-19T22:33:06.559Z,96928.14
2018-02-19T22:35:34.021Z,96928.50
2018-02-19T22:38:01.624Z,96926.59
2018-02-19T22:40:29.118Z,96936.56
2018-02-19T22:42:56.696Z,96927.77
2018-02-19T22:45:24.157Z,96929.39
2018-02-19T22:47:51.684Z,96916.55
2018-02-19T22:50:19.203Z,96923.46
2018-02-19T22:52:46.661Z,96921.69
2018-02-19T22:55:14.113Z,96922.84
2018-02-19T22:57:41.606Z,96916.23
2018-02-19T23:00:09.128Z,96914.88
2018-02-19T23:02:36.654Z,96919.30
2018-02-19T23:05:04.110Z,96917.58
2018-02-19T23:07:31.647Z,96916.17
2018-02-19T23:09:59.104Z,96914.00
2018-02-19T23:12:26.679Z,96910.92
2018-02-19T23:14:54.141Z,96912.02
2018-02-19T23:17:21.586Z,96907.93
2018-02-19T23:19:49.109Z,96902.36
2018-02-19T23:22:16.593Z,96901.73
2018-02-19T23:24:44.098Z,96896.69
2018-02-19T23:27:11.570Z,96894.77
2018-02-19T23:29:39.119Z,96897.33
2018-02-19T23:32:06.636Z,96888.64
2018-02-19T23:34:34.170Z,96883.50
2018-02-19T23:37:01.659Z,96883.23
2018-02-19T23:39:29.269Z,96885.41
2018-02-19T23:41:57.120Z,96885.94
2018-02-19T23:44:24.625Z,96896.23
2018-02-19T23:46:52.254Z,96900.28
2018-02-19T23:49:19.934Z,96891.97
2018-02-19T23:51:47.477Z,96891.17
2018-02-19T23:54:20.028Z,96902.15
2018-02-19T23:56:47.470Z,96893.59
2018-02-19T23:59:14.980Z,96889.19
